sensor_id;sensor_type;location;lat;lon;timestamp;temperature;humidity
24144;DHT22;12307;50.828;6.080;2022-12-11T00:01:57;18.40;51.10
24144;DHT22;12307;50.828;6.080;2022-12-11T00:04:23;18.40;50.90
24144;DHT22;12307;50.828;6.080;2022-12-11T00:06:51;18.40;50.70
24144;DHT22;12307;50.828;6.080;2022-12-11T00:09:18;18.40;50.50
24144;DHT22;12307;50.828;6.080;2022-12-11T00:11:44;18.40;50.70
24144;DHT22;12307;50.828;6.080;2022-12-11T00:14:10;18.40;50.60
24144;DHT22;12307;50.828;6.080;2022-12-11T00:16:35;18.40;50.30
24144;DHT22;12307;50.828;6.080;2022-12-11T00:19:02;18.40;50.40
24144;DHT22;12307;50.828;6.080;2022-12-11T00:21:28;18.40;50.40
24144;DHT22;12307;50.828;6.080;2022-12-11T00:23:55;18.40;50.70
24144;DHT22;12307;50.828;6.080;2022-12-11T00:26:21;18.40;50.60
24144;DHT22;12307;50.828;6.080;2022-12-11T00:28:47;18.40;50.50
24144;DHT22;12307;50.828;6.080;2022-12-11T00:31:16;18.40;50.50
24144;DHT22;12307;50.828;6.080;2022-12-11T00:33:42;18.40;50.40
24144;DHT22;12307;50.828;6.080;2022-12-11T00:36:11;18.40;50.70
24144;DHT22;12307;50.828;6.080;2022-12-11T00:38:36;18.40;50.60
24144;DHT22;12307;50.828;6.080;2022-12-11T00:41:04;18.40;50.50
24144;DHT22;12307;50.828;6.080;2022-12-11T00:43:29;18.40;50.70
24144;DHT22;12307;50.828;6.080;2022-12-11T00:45:55;18.40;50.50
24144;DHT22;12307;50.828;6.080;2022-12-11T00:48:21;18.40;50.80
24144;DHT22;12307;50.828;6.080;2022-12-11T00:50:46;18.40;50.60
24144;DHT22;12307;50.828;6.080;2022-12-11T00:53:12;18.40;51.00
24144;DHT22;12307;50.828;6.080;2022-12-11T00:55:39;18.40;50.60
24144;DHT22;12307;50.828;6.080;2022-12-11T00:58:07;18.40;50.70
24144;DHT22;12307;50.828;6.080;2022-12-11T01:00:33;18.40;51.10
24144;DHT22;12307;50.828;6.080;2022-12-11T01:02:59;18.40;51.10
24144;DHT22;12307;50.828;6.080;2022-12-11T01:05:25;18.40;50.70
24144;DHT22;12307;50.828;6.080;2022-12-11T01:07:51;18.40;51.50
24144;DHT22;12307;50.828;6.080;2022-12-11T01:10:17;18.40;50.80
24144;DHT22;12307;50.828;6.080;2022-12-11T01:12:49;18.40;50.90
24144;DHT22;12307;50.828;6.080;2022-12-11T01:15:16;18.40;50.70
24144;DHT22;12307;50.828;6.080;2022-12-11T01:17:42;18.40;50.80
24144;DHT22;12307;50.828;6.080;2022-12-11T01:20:08;18.40;50.80
24144;DHT22;12307;50.828;6.080;2022-12-11T01:22:34;18.40;50.70
24144;DHT22;12307;50.828;6.080;2022-12-11T01:25:00;18.40;51.00
24144;DHT22;12307;50.828;6.080;2022-12-11T01:27:25;18.40;50.70
24144;DHT22;12307;50.828;6.080;2022-12-11T01:29:51;18.40;50.80
24144;DHT22;12307;50.828;6.080;2022-12-11T01:32:18;18.40;50.80
24144;DHT22;12307;50.828;6.080;2022-12-11T01:34:44;18.40;50.90
24144;DHT22;12307;50.828;6.080;2022-12-11T01:37:09;18.40;50.50
24144;DHT22;12307;50.828;6.080;2022-12-11T01:39:35;18.40;50.70
24144;DHT22;12307;50.828;6.080;2022-12-11T01:42:03;18.40;50.30
24144;DHT22;12307;50.828;6.080;2022-12-11T01:47:43;18.40;50.80
24144;DHT22;12307;50.828;6.080;2022-12-11T01:50:10;18.40;50.50
24144;DHT22;12307;50.828;6.080;2022-12-11T01:52:36;18.40;50.60
24144;DHT22;12307;50.828;6.080;2022-12-11T01:55:02;18.40;50.40
24144;DHT22;12307;50.828;6.080;2022-12-11T01:57:28;18.40;50.70
24144;DHT22;12307;50.828;6.080;2022-12-11T01:59:55;18.40;50.70
24144;DHT22;12307;50.828;6.080;2022-12-11T02:02:25;18.40;51.10
24144;DHT22;12307;50.828;6.080;2022-12-11T02:04:53;18.40;50.60
24144;DHT22;12307;50.828;6.080;2022-12-11T02:07:19;18.40;50.60
24144;DHT22;12307;50.828;6.080;2022-12-11T02:09:45;18.40;50.30
24144;DHT22;12307;50.828;6.080;2022-12-11T02:12:15;18.40;50.60
24144;DHT22;12307;50.828;6.080;2022-12-11T02:14:48;18.40;50.40
24144;DHT22;12307;50.828;6.080;2022-12-11T02:17:20;18.40;50.90
24144;DHT22;12307;50.828;6.080;2022-12-11T02:19:59;18.40;50.70
24144;DHT22;12307;50.828;6.080;2022-12-11T02:22:45;18.40;50.70
24144;DHT22;12307;50.828;6.080;2022-12-11T02:25:19;18.40;50.40
24144;DHT22;12307;50.828;6.080;2022-12-11T02:27:50;18.40;50.60
24144;DHT22;12307;50.828;6.080;2022-12-11T02:30:22;18.40;50.80
24144;DHT22;12307;50.828;6.080;2022-12-11T02:32:53;18.40;50.60
24144;DHT22;12307;50.828;6.080;2022-12-11T02:35:22;18.40;50.70
24144;DHT22;12307;50.828;6.080;2022-12-11T02:37:54;18.40;50.90
24144;DHT22;12307;50.828;6.080;2022-12-11T02:40:25;18.40;51.10
24144;DHT22;12307;50.828;6.080;2022-12-11T02:42:54;18.40;50.90
24144;DHT22;12307;50.828;6.080;2022-12-11T02:45:23;18.40;50.90
24144;DHT22;12307;50.828;6.080;2022-12-11T02:47:51;18.40;51.10
24144;DHT22;12307;50.828;6.080;2022-12-11T02:50:19;18.40;50.70
24144;DHT22;12307;50.828;6.080;2022-12-11T02:52:47;18.40;50.90
24144;DHT22;12307;50.828;6.080;2022-12-11T02:55:15;18.40;51.30
24144;DHT22;12307;50.828;6.080;2022-12-11T02:57:43;18.40;50.70
24144;DHT22;12307;50.828;6.080;2022-12-11T03:00:11;18.40;50.90
24144;DHT22;12307;50.828;6.080;2022-12-11T03:02:38;18.40;50.50
24144;DHT22;12307;50.828;6.080;2022-12-11T03:05:05;18.40;50.30
24144;DHT22;12307;50.828;6.080;2022-12-11T03:07:34;18.30;50.10
24144;DHT22;12307;50.828;6.080;2022-12-11T03:10:00;18.40;50.30
24144;DHT22;12307;50.828;6.080;2022-12-11T03:12:28;18.40;50.10
24144;DHT22;12307;50.828;6.080;2022-12-11T03:14:57;18.30;50.10
24144;DHT22;12307;50.828;6.080;2022-12-11T03:17:29;18.30;50.00
24144;DHT22;12307;50.828;6.080;2022-12-11T03:20:06;18.40;50.30
24144;DHT22;12307;50.828;6.080;2022-12-11T03:22:36;18.40;50.30
24144;DHT22;12307;50.828;6.080;2022-12-11T03:25:06;18.40;50.30
24144;DHT22;12307;50.828;6.080;2022-12-11T03:27:36;18.40;50.20
24144;DHT22;12307;50.828;6.080;2022-12-11T03:30:07;18.40;50.60
24144;DHT22;12307;50.828;6.080;2022-12-11T03:32:38;18.40;50.60
24144;DHT22;12307;50.828;6.080;2022-12-11T03:35:12;18.40;50.50
24144;DHT22;12307;50.828;6.080;2022-12-11T03:37:39;18.40;50.30
24144;DHT22;12307;50.828;6.080;2022-12-11T03:40:09;18.40;50.30
24144;DHT22;12307;50.828;6.080;2022-12-11T03:42:38;18.40;50.30
24144;DHT22;12307;50.828;6.080;2022-12-11T03:45:06;18.40;50.70
24144;DHT22;12307;50.828;6.080;2022-12-11T03:47:33;18.40;50.40
24144;DHT22;12307;50.828;6.080;2022-12-11T03:50:01;18.30;50.80
24144;DHT22;12307;50.828;6.080;2022-12-11T03:52:31;18.40;51.00
24144;DHT22;12307;50.828;6.080;2022-12-11T03:54:59;18.30;50.80
24144;DHT22;12307;50.828;6.080;2022-12-11T03:57:29;18.30;50.60
24144;DHT22;12307;50.828;6.080;2022-12-11T03:59:56;18.40;50.70
24144;DHT22;12307;50.828;6.080;2022-12-11T04:02:22;18.40;51.00
24144;DHT22;12307;50.828;6.080;2022-12-11T04:04:48;18.40;51.00
24144;DHT22;12307;50.828;6.080;2022-12-11T04:07:14;18.40;51.00
24144;DHT22;12307;50.828;6.080;2022-12-11T04:09:41;18.40;51.00
24144;DHT22;12307;50.828;6.080;2022-12-11T04:12:06;18.40;50.70
24144;DHT22;12307;50.828;6.080;2022-12-11T04:14:32;18.40;50.30
24144;DHT22;12307;50.828;6.080;2022-12-11T04:17:17;18.40;50.40
24144;DHT22;12307;50.828;6.080;2022-12-11T04:20:03;18.40;50.80
24144;DHT22;12307;50.828;6.080;2022-12-11T04:22:47;18.40;50.70
24144;DHT22;12307;50.828;6.080;2022-12-11T04:25:32;18.40;50.40
24144;DHT22;12307;50.828;6.080;2022-12-11T04:27:58;18.40;50.60
24144;DHT22;12307;50.828;6.080;2022-12-11T04:30:24;18.40;50.40
24144;DHT22;12307;50.828;6.080;2022-12-11T04:32:51;18.40;50.60
24144;DHT22;12307;50.828;6.080;2022-12-11T04:35:18;18.40;50.40
24144;DHT22;12307;50.828;6.080;2022-12-11T04:37:43;18.40;50.10
24144;DHT22;12307;50.828;6.080;2022-12-11T04:40:12;18.40;50.10
24144;DHT22;12307;50.828;6.080;2022-12-11T04:42:39;18.40;50.40
24144;DHT22;12307;50.828;6.080;2022-12-11T04:45:06;18.40;50.60
24144;DHT22;12307;50.828;6.080;2022-12-11T04:47:33;18.40;50.10
24144;DHT22;12307;50.828;6.080;2022-12-11T04:49:59;18.40;50.10
24144;DHT22;12307;50.828;6.080;2022-12-11T04:52:24;18.40;50.40
24144;DHT22;12307;50.828;6.080;2022-12-11T04:54:50;18.40;50.60
24144;DHT22;12307;50.828;6.080;2022-12-11T04:57:16;18.40;50.60
24144;DHT22;12307;50.828;6.080;2022-12-11T04:59:43;18.40;50.40
24144;DHT22;12307;50.828;6.080;2022-12-11T05:02:09;18.40;50.70
24144;DHT22;12307;50.828;6.080;2022-12-11T05:04:35;18.40;50.30
24144;DHT22;12307;50.828;6.080;2022-12-11T05:07:00;18.40;50.40
24144;DHT22;12307;50.828;6.080;2022-12-11T05:09:26;18.40;50.70
24144;DHT22;12307;50.828;6.080;2022-12-11T05:11:52;18.40;50.20
24144;DHT22;12307;50.828;6.080;2022-12-11T05:14:18;18.40;50.50
24144;DHT22;12307;50.828;6.080;2022-12-11T05:16:45;18.40;50.60
24144;DHT22;12307;50.828;6.080;2022-12-11T05:19:11;18.40;50.30
24144;DHT22;12307;50.828;6.080;2022-12-11T05:21:36;18.40;50.40
24144;DHT22;12307;50.828;6.080;2022-12-11T05:24:03;18.40;50.70
24144;DHT22;12307;50.828;6.080;2022-12-11T05:26:28;18.40;50.60
24144;DHT22;12307;50.828;6.080;2022-12-11T05:28:55;18.40;50.60
24144;DHT22;12307;50.828;6.080;2022-12-11T05:31:22;18.40;50.40
24144;DHT22;12307;50.828;6.080;2022-12-11T05:33:50;18.40;50.40
24144;DHT22;12307;50.828;6.080;2022-12-11T05:36:18;18.40;50.50
24144;DHT22;12307;50.828;6.080;2022-12-11T05:38:44;18.30;50.30
24144;DHT22;12307;50.828;6.080;2022-12-11T05:41:13;18.40;50.70
24144;DHT22;12307;50.828;6.080;2022-12-11T05:43:39;18.40;50.90
24144;DHT22;12307;50.828;6.080;2022-12-11T05:46:08;18.40;50.60
24144;DHT22;12307;50.828;6.080;2022-12-11T05:48:35;18.30;50.40
24144;DHT22;12307;50.828;6.080;2022-12-11T05:51:03;18.40;50.50
24144;DHT22;12307;50.828;6.080;2022-12-11T05:53:29;18.40;50.40
24144;DHT22;12307;50.828;6.080;2022-12-11T05:56:00;18.40;50.10
24144;DHT22;12307;50.828;6.080;2022-12-11T05:58:27;18.40;50.10
24144;DHT22;12307;50.828;6.080;2022-12-11T06:00:53;18.40;50.30
24144;DHT22;12307;50.828;6.080;2022-12-11T06:03:19;18.40;50.00
24144;DHT22;12307;50.828;6.080;2022-12-11T06:05:45;18.40;50.10
24144;DHT22;12307;50.828;6.080;2022-12-11T06:08:12;18.40;50.30
24144;DHT22;12307;50.828;6.080;2022-12-11T06:10:41;18.40;50.10
24144;DHT22;12307;50.828;6.080;2022-12-11T06:13:08;18.40;50.10
24144;DHT22;12307;50.828;6.080;2022-12-11T06:15:34;18.40;50.30
24144;DHT22;12307;50.828;6.080;2022-12-11T06:18:00;18.40;50.00
24144;DHT22;12307;50.828;6.080;2022-12-11T06:20:25;18.40;50.00
24144;DHT22;12307;50.828;6.080;2022-12-11T06:22:51;18.40;50.10
24144;DHT22;12307;50.828;6.080;2022-12-11T06:25:18;18.40;50.60
24144;DHT22;12307;50.828;6.080;2022-12-11T06:27:44;18.40;50.40
24144;DHT22;12307;50.828;6.080;2022-12-11T06:30:10;18.40;50.00
24144;DHT22;12307;50.828;6.080;2022-12-11T06:32:36;18.40;50.20
24144;DHT22;12307;50.828;6.080;2022-12-11T06:35:02;18.40;50.50
24144;DHT22;12307;50.828;6.080;2022-12-11T06:37:28;18.40;50.70
24144;DHT22;12307;50.828;6.080;2022-12-11T06:39:53;18.30;51.00
24144;DHT22;12307;50.828;6.080;2022-12-11T06:42:20;18.40;50.40
24144;DHT22;12307;50.828;6.080;2022-12-11T06:44:46;18.40;50.40
24144;DHT22;12307;50.828;6.080;2022-12-11T06:47:12;18.40;50.20
24144;DHT22;12307;50.828;6.080;2022-12-11T06:49:37;18.40;50.30
24144;DHT22;12307;50.828;6.080;2022-12-11T06:52:04;18.40;50.50
24144;DHT22;12307;50.828;6.080;2022-12-11T06:54:30;18.40;50.30
24144;DHT22;12307;50.828;6.080;2022-12-11T06:56:56;18.40;50.50
24144;DHT22;12307;50.828;6.080;2022-12-11T06:59:23;18.40;50.40
24144;DHT22;12307;50.828;6.080;2022-12-11T07:01:49;18.40;50.50
24144;DHT22;12307;50.828;6.080;2022-12-11T07:04:14;18.40;50.30
24144;DHT22;12307;50.828;6.080;2022-12-11T07:06:40;18.40;50.70
24144;DHT22;12307;50.828;6.080;2022-12-11T07:09:06;18.30;50.50
24144;DHT22;12307;50.828;6.080;2022-12-11T07:11:32;18.40;50.30
24144;DHT22;12307;50.828;6.080;2022-12-11T07:13:58;18.30;50.50
24144;DHT22;12307;50.828;6.080;2022-12-11T07:16:26;18.30;50.50
24144;DHT22;12307;50.828;6.080;2022-12-11T07:18:51;18.30;50.30
24144;DHT22;12307;50.828;6.080;2022-12-11T07:21:18;18.40;50.10
24144;DHT22;12307;50.828;6.080;2022-12-11T07:23:45;18.40;50.30
24144;DHT22;12307;50.828;6.080;2022-12-11T07:26:14;18.40;50.30
24144;DHT22;12307;50.828;6.080;2022-12-11T07:28:40;18.30;49.90
24144;DHT22;12307;50.828;6.080;2022-12-11T07:31:07;18.40;49.60
24144;DHT22;12307;50.828;6.080;2022-12-11T07:33:34;18.40;50.20
24144;DHT22;12307;50.828;6.080;2022-12-11T07:36:01;18.40;50.20
24144;DHT22;12307;50.828;6.080;2022-12-11T07:38:27;18.40;50.20
24144;DHT22;12307;50.828;6.080;2022-12-11T07:40:53;18.40;50.40
24144;DHT22;12307;50.828;6.080;2022-12-11T07:43:18;18.40;50.30
24144;DHT22;12307;50.828;6.080;2022-12-11T07:45:44;18.40;50.10
24144;DHT22;12307;50.828;6.080;2022-12-11T07:48:10;18.40;50.20
24144;DHT22;12307;50.828;6.080;2022-12-11T07:50:38;18.40;50.10
24144;DHT22;12307;50.828;6.080;2022-12-11T07:53:04;18.40;50.00
24144;DHT22;12307;50.828;6.080;2022-12-11T07:55:30;18.40;50.40
24144;DHT22;12307;50.828;6.080;2022-12-11T07:57:56;18.40;50.00
24144;DHT22;12307;50.828;6.080;2022-12-11T08:00:22;18.40;50.40
24144;DHT22;12307;50.828;6.080;2022-12-11T08:02:48;18.30;50.50
24144;DHT22;12307;50.828;6.080;2022-12-11T08:05:13;18.40;50.50
24144;DHT22;12307;50.828;6.080;2022-12-11T08:07:40;18.40;50.10
24144;DHT22;12307;50.828;6.080;2022-12-11T08:10:06;18.40;50.30
24144;DHT22;12307;50.828;6.080;2022-12-11T08:12:32;18.30;50.30
24144;DHT22;12307;50.828;6.080;2022-12-11T08:14:58;18.40;50.40
24144;DHT22;12307;50.828;6.080;2022-12-11T08:17:24;18.40;50.60
24144;DHT22;12307;50.828;6.080;2022-12-11T08:19:49;18.40;50.30
24144;DHT22;12307;50.828;6.080;2022-12-11T08:22:15;18.30;50.00
24144;DHT22;12307;50.828;6.080;2022-12-11T08:24:42;18.30;50.40
24144;DHT22;12307;50.828;6.080;2022-12-11T08:27:08;18.40;50.00
24144;DHT22;12307;50.828;6.080;2022-12-11T08:29:33;18.40;50.20
24144;DHT22;12307;50.828;6.080;2022-12-11T08:31:59;18.40;50.20
24144;DHT22;12307;50.828;6.080;2022-12-11T08:34:25;18.40;50.30
24144;DHT22;12307;50.828;6.080;2022-12-11T08:36:50;18.40;50.40
24144;DHT22;12307;50.828;6.080;2022-12-11T08:39:16;18.40;50.40
24144;DHT22;12307;50.828;6.080;2022-12-11T08:41:43;18.40;50.20
24144;DHT22;12307;50.828;6.080;2022-12-11T08:44:11;18.40;49.70
24144;DHT22;12307;50.828;6.080;2022-12-11T08:46:36;18.40;49.70
24144;DHT22;12307;50.828;6.080;2022-12-11T08:49:02;18.40;49.60
24144;DHT22;12307;50.828;6.080;2022-12-11T08:51:29;18.40;49.50
24144;DHT22;12307;50.828;6.080;2022-12-11T08:53:56;18.40;49.60
24144;DHT22;12307;50.828;6.080;2022-12-11T08:56:22;18.40;49.60
24144;DHT22;12307;50.828;6.080;2022-12-11T08:58:50;18.40;49.50
24144;DHT22;12307;50.828;6.080;2022-12-11T09:01:18;18.50;49.60
24144;DHT22;12307;50.828;6.080;2022-12-11T09:03:46;18.50;49.70
24144;DHT22;12307;50.828;6.080;2022-12-11T09:06:14;18.50;49.60
24144;DHT22;12307;50.828;6.080;2022-12-11T09:08:41;18.50;49.70
24144;DHT22;12307;50.828;6.080;2022-12-11T09:11:08;18.50;49.40
24144;DHT22;12307;50.828;6.080;2022-12-11T09:13:35;18.50;49.90
24144;DHT22;12307;50.828;6.080;2022-12-11T09:16:04;18.50;49.70
24144;DHT22;12307;50.828;6.080;2022-12-11T09:18:30;18.50;49.50
24144;DHT22;12307;50.828;6.080;2022-12-11T09:21:00;18.60;49.50
24144;DHT22;12307;50.828;6.080;2022-12-11T09:23:26;18.60;49.30
24144;DHT22;12307;50.828;6.080;2022-12-11T09:25:52;18.60;49.10
24144;DHT22;12307;50.828;6.080;2022-12-11T09:28:18;18.60;49.00
24144;DHT22;12307;50.828;6.080;2022-12-11T09:30:44;18.70;49.00
24144;DHT22;12307;50.828;6.080;2022-12-11T09:33:11;18.70;49.00
24144;DHT22;12307;50.828;6.080;2022-12-11T09:35:37;18.70;48.90
24144;DHT22;12307;50.828;6.080;2022-12-11T09:38:02;18.80;48.90
24144;DHT22;12307;50.828;6.080;2022-12-11T09:40:28;18.80;48.80
24144;DHT22;12307;50.828;6.080;2022-12-11T09:42:58;18.80;48.90
24144;DHT22;12307;50.828;6.080;2022-12-11T09:45:25;18.80;48.90
24144;DHT22;12307;50.828;6.080;2022-12-11T09:47:52;18.80;48.90
24144;DHT22;12307;50.828;6.080;2022-12-11T09:50:23;18.80;49.00
24144;DHT22;12307;50.828;6.080;2022-12-11T09:52:58;18.80;48.90
24144;DHT22;12307;50.828;6.080;2022-12-11T09:55:31;18.80;48.90
24144;DHT22;12307;50.828;6.080;2022-12-11T09:58:04;18.80;49.00
24144;DHT22;12307;50.828;6.080;2022-12-11T10:00:36;18.80;49.10
24144;DHT22;12307;50.828;6.080;2022-12-11T10:03:30;18.90;49.20
24144;DHT22;12307;50.828;6.080;2022-12-11T10:06:05;18.90;48.80
24144;DHT22;12307;50.828;6.080;2022-12-11T10:08:37;19.00;49.00
24144;DHT22;12307;50.828;6.080;2022-12-11T10:11:20;19.00;48.70
24144;DHT22;12307;50.828;6.080;2022-12-11T10:13:51;19.00;48.70
24144;DHT22;12307;50.828;6.080;2022-12-11T10:16:28;19.10;48.80
24144;DHT22;12307;50.828;6.080;2022-12-11T10:18:57;19.10;48.60
24144;DHT22;12307;50.828;6.080;2022-12-11T10:21:25;19.10;48.60
24144;DHT22;12307;50.828;6.080;2022-12-11T10:23:55;19.20;49.00
24144;DHT22;12307;50.828;6.080;2022-12-11T10:26:23;19.20;49.20
24144;DHT22;12307;50.828;6.080;2022-12-11T10:28:49;19.20;49.10
24144;DHT22;12307;50.828;6.080;2022-12-11T10:31:16;19.20;49.10
24144;DHT22;12307;50.828;6.080;2022-12-11T10:33:53;19.20;49.50
24144;DHT22;12307;50.828;6.080;2022-12-11T10:36:27;19.20;49.20
24144;DHT22;12307;50.828;6.080;2022-12-11T10:38:54;19.20;49.10
24144;DHT22;12307;50.828;6.080;2022-12-11T10:41:22;19.20;49.50
24144;DHT22;12307;50.828;6.080;2022-12-11T10:43:50;19.20;49.80
24144;DHT22;12307;50.828;6.080;2022-12-11T10:46:19;19.10;50.10
24144;DHT22;12307;50.828;6.080;2022-12-11T10:48:46;19.20;49.80
24144;DHT22;12307;50.828;6.080;2022-12-11T10:51:13;19.10;49.60
24144;DHT22;12307;50.828;6.080;2022-12-11T10:53:41;19.10;49.50
24144;DHT22;12307;50.828;6.080;2022-12-11T10:56:08;19.10;49.30
24144;DHT22;12307;50.828;6.080;2022-12-11T10:58:38;19.10;49.90
24144;DHT22;12307;50.828;6.080;2022-12-11T11:01:06;19.20;49.60
24144;DHT22;12307;50.828;6.080;2022-12-11T11:03:34;19.20;49.70
24144;DHT22;12307;50.828;6.080;2022-12-11T11:06:03;19.20;49.60
24144;DHT22;12307;50.828;6.080;2022-12-11T11:08:37;19.20;49.60
24144;DHT22;12307;50.828;6.080;2022-12-11T11:11:05;19.20;49.70
24144;DHT22;12307;50.828;6.080;2022-12-11T11:13:33;19.10;49.90
24144;DHT22;12307;50.828;6.080;2022-12-11T11:16:00;19.10;49.60
24144;DHT22;12307;50.828;6.080;2022-12-11T11:18:27;19.20;50.10
24144;DHT22;12307;50.828;6.080;2022-12-11T11:20:54;19.10;49.80
24144;DHT22;12307;50.828;6.080;2022-12-11T11:23:21;19.10;49.40
24144;DHT22;12307;50.828;6.080;2022-12-11T11:25:50;19.10;49.40
24144;DHT22;12307;50.828;6.080;2022-12-11T11:28:20;19.10;49.40
24144;DHT22;12307;50.828;6.080;2022-12-11T11:30:56;19.10;49.40
24144;DHT22;12307;50.828;6.080;2022-12-11T11:33:23;19.20;49.10
24144;DHT22;12307;50.828;6.080;2022-12-11T11:35:52;19.30;48.50
24144;DHT22;12307;50.828;6.080;2022-12-11T11:38:19;19.50;48.10
24144;DHT22;12307;50.828;6.080;2022-12-11T11:40:47;19.60;47.90
24144;DHT22;12307;50.828;6.080;2022-12-11T11:43:20;19.70;47.80
24144;DHT22;12307;50.828;6.080;2022-12-11T11:45:57;19.80;47.80
24144;DHT22;12307;50.828;6.080;2022-12-11T11:48:31;20.00;48.20
24144;DHT22;12307;50.828;6.080;2022-12-11T11:51:10;20.10;49.30
24144;DHT22;12307;50.828;6.080;2022-12-11T11:53:38;20.20;49.30
24144;DHT22;12307;50.828;6.080;2022-12-11T11:56:19;20.20;49.20
24144;DHT22;12307;50.828;6.080;2022-12-11T11:58:52;20.30;49.30
24144;DHT22;12307;50.828;6.080;2022-12-11T12:01:22;20.40;49.10
24144;DHT22;12307;50.828;6.080;2022-12-11T12:03:48;20.40;48.90
24144;DHT22;12307;50.828;6.080;2022-12-11T12:06:20;20.50;48.50
24144;DHT22;12307;50.828;6.080;2022-12-11T12:08:58;20.50;48.60
24144;DHT22;12307;50.828;6.080;2022-12-11T12:11:31;20.50;48.70
24144;DHT22;12307;50.828;6.080;2022-12-11T12:14:05;20.50;48.60
24144;DHT22;12307;50.828;6.080;2022-12-11T12:16:38;20.50;48.50
24144;DHT22;12307;50.828;6.080;2022-12-11T12:19:12;20.50;48.80
24144;DHT22;12307;50.828;6.080;2022-12-11T12:21:42;20.50;48.40
24144;DHT22;12307;50.828;6.080;2022-12-11T12:24:19;20.50;47.60
24144;DHT22;12307;50.828;6.080;2022-12-11T12:26:52;20.50;48.20
24144;DHT22;12307;50.828;6.080;2022-12-11T12:29:27;20.50;48.30
24144;DHT22;12307;50.828;6.080;2022-12-11T12:32:04;20.50;47.90
24144;DHT22;12307;50.828;6.080;2022-12-11T12:34:47;20.40;47.00
24144;DHT22;12307;50.828;6.080;2022-12-11T12:37:22;20.40;47.00
24144;DHT22;12307;50.828;6.080;2022-12-11T12:39:59;20.30;47.00
24144;DHT22;12307;50.828;6.080;2022-12-11T12:42:31;20.20;47.40
24144;DHT22;12307;50.828;6.080;2022-12-11T12:45:22;20.20;47.30
24144;DHT22;12307;50.828;6.080;2022-12-11T12:47:50;20.20;47.30
24144;DHT22;12307;50.828;6.080;2022-12-11T12:50:19;20.20;47.40
24144;DHT22;12307;50.828;6.080;2022-12-11T12:52:47;20.10;47.40
24144;DHT22;12307;50.828;6.080;2022-12-11T12:55:19;20.10;47.40
24144;DHT22;12307;50.828;6.080;2022-12-11T12:57:49;20.00;47.50
24144;DHT22;12307;50.828;6.080;2022-12-11T13:00:29;20.00;47.80
24144;DHT22;12307;50.828;6.080;2022-12-11T13:02:55;20.00;47.80
24144;DHT22;12307;50.828;6.080;2022-12-11T13:05:23;19.90;47.90
24144;DHT22;12307;50.828;6.080;2022-12-11T13:07:49;19.90;48.00
24144;DHT22;12307;50.828;6.080;2022-12-11T13:10:26;19.90;48.20
24144;DHT22;12307;50.828;6.080;2022-12-11T13:12:52;19.80;48.10
24144;DHT22;12307;50.828;6.080;2022-12-11T13:15:38;19.80;48.10
24144;DHT22;12307;50.828;6.080;2022-12-11T13:18:32;19.70;48.80
24144;DHT22;12307;50.828;6.080;2022-12-11T13:20:59;19.70;49.80
24144;DHT22;12307;50.828;6.080;2022-12-11T13:23:27;19.60;48.70
24144;DHT22;12307;50.828;6.080;2022-12-11T13:25:55;19.60;49.20
24144;DHT22;12307;50.828;6.080;2022-12-11T13:28:25;19.60;49.10
24144;DHT22;12307;50.828;6.080;2022-12-11T13:31:02;19.50;48.80
24144;DHT22;12307;50.828;6.080;2022-12-11T13:33:30;19.50;49.00
24144;DHT22;12307;50.828;6.080;2022-12-11T13:36:19;19.50;49.00
24144;DHT22;12307;50.828;6.080;2022-12-11T13:38:49;19.40;49.00
24144;DHT22;12307;50.828;6.080;2022-12-11T13:41:17;19.40;49.10
24144;DHT22;12307;50.828;6.080;2022-12-11T13:43:46;19.40;49.10
24144;DHT22;12307;50.828;6.080;2022-12-11T13:46:14;19.30;49.10
24144;DHT22;12307;50.828;6.080;2022-12-11T13:48:48;19.30;49.20
24144;DHT22;12307;50.828;6.080;2022-12-11T13:51:16;19.30;49.20
24144;DHT22;12307;50.828;6.080;2022-12-11T13:53:42;19.30;49.40
24144;DHT22;12307;50.828;6.080;2022-12-11T13:56:15;19.20;49.30
24144;DHT22;12307;50.828;6.080;2022-12-11T13:58:41;19.20;49.40
24144;DHT22;12307;50.828;6.080;2022-12-11T14:01:13;19.20;49.50
24144;DHT22;12307;50.828;6.080;2022-12-11T14:03:42;19.20;49.60
24144;DHT22;12307;50.828;6.080;2022-12-11T14:06:14;19.20;49.60
24144;DHT22;12307;50.828;6.080;2022-12-11T14:08:43;19.20;49.80
24144;DHT22;12307;50.828;6.080;2022-12-11T14:11:20;19.10;49.80
24144;DHT22;12307;50.828;6.080;2022-12-11T14:13:46;19.10;49.40
24144;DHT22;12307;50.828;6.080;2022-12-11T14:16:18;19.10;50.00
24144;DHT22;12307;50.828;6.080;2022-12-11T14:18:48;19.10;49.70
24144;DHT22;12307;50.828;6.080;2022-12-11T14:21:19;19.00;49.60
24144;DHT22;12307;50.828;6.080;2022-12-11T14:23:51;19.00;49.40
24144;DHT22;12307;50.828;6.080;2022-12-11T14:26:21;19.00;49.40
24144;DHT22;12307;50.828;6.080;2022-12-11T14:28:48;19.00;50.00
24144;DHT22;12307;50.828;6.080;2022-12-11T14:31:15;19.00;49.60
24144;DHT22;12307;50.828;6.080;2022-12-11T14:33:45;19.00;49.40
24144;DHT22;12307;50.828;6.080;2022-12-11T14:36:13;18.90;49.60
24144;DHT22;12307;50.828;6.080;2022-12-11T14:38:43;18.90;49.50
24144;DHT22;12307;50.828;6.080;2022-12-11T14:41:12;18.90;49.50
24144;DHT22;12307;50.828;6.080;2022-12-11T14:43:43;18.90;49.50
24144;DHT22;12307;50.828;6.080;2022-12-11T14:46:16;18.90;49.50
24144;DHT22;12307;50.828;6.080;2022-12-11T14:48:45;18.90;49.40
24144;DHT22;12307;50.828;6.080;2022-12-11T14:51:13;18.90;49.50
24144;DHT22;12307;50.828;6.080;2022-12-11T14:53:45;18.90;49.70
24144;DHT22;12307;50.828;6.080;2022-12-11T14:56:17;18.90;49.70
24144;DHT22;12307;50.828;6.080;2022-12-11T14:58:54;18.90;49.70
24144;DHT22;12307;50.828;6.080;2022-12-11T15:01:23;18.80;49.70
24144;DHT22;12307;50.828;6.080;2022-12-11T15:03:49;18.80;49.70
24144;DHT22;12307;50.828;6.080;2022-12-11T15:06:22;18.80;49.70
24144;DHT22;12307;50.828;6.080;2022-12-11T15:08:51;18.80;49.50
24144;DHT22;12307;50.828;6.080;2022-12-11T15:11:17;18.80;49.70
24144;DHT22;12307;50.828;6.080;2022-12-11T15:13:50;18.80;49.40
24144;DHT22;12307;50.828;6.080;2022-12-11T15:16:17;18.80;49.50
24144;DHT22;12307;50.828;6.080;2022-12-11T15:18:47;18.80;49.50
24144;DHT22;12307;50.828;6.080;2022-12-11T15:21:14;18.80;49.60
24144;DHT22;12307;50.828;6.080;2022-12-11T15:23:49;18.80;49.50
24144;DHT22;12307;50.828;6.080;2022-12-11T15:26:17;18.80;49.60
24144;DHT22;12307;50.828;6.080;2022-12-11T15:28:43;18.80;49.50
24144;DHT22;12307;50.828;6.080;2022-12-11T15:31:23;18.70;49.40
24144;DHT22;12307;50.828;6.080;2022-12-11T15:33:49;18.70;49.60
24144;DHT22;12307;50.828;6.080;2022-12-11T15:36:23;18.70;49.70
24144;DHT22;12307;50.828;6.080;2022-12-11T15:38:49;18.70;49.70
24144;DHT22;12307;50.828;6.080;2022-12-11T15:41:17;18.70;49.50
24144;DHT22;12307;50.828;6.080;2022-12-11T15:43:46;18.70;49.70